sensor_id;sensor_type;location;lat;lon;timestamp;pressure;altitude;pressure_sealevel;temperature;humidity
19210;BME280;9738;51.654;14.238;2023-02-14T00:01:13;102618.72;;;5.65;100.00
19210;BME280;9738;51.654;14.238;2023-02-14T00:03:39;102611.72;;;5.64;100.00
19210;BME280;9738;51.654;14.238;2023-02-14T00:06:11;102617.78;;;5.66;100.00
19210;BME280;9738;51.654;14.238;2023-02-14T00:08:37;102608.28;;;5.62;100.00
19210;BME280;9738;51.654;14.238;2023-02-14T00:11:04;102620.75;;;5.60;100.00
19210;BME280;9738;51.654;14.238;2023-02-14T00:13:33;102605.69;;;5.60;100.00
19210;BME280;9738;51.654;14.238;2023-02-14T00:15:58;102612.63;;;5.63;100.00
19210;BME280;9738;51.654;14.238;2023-02-14T00:18:24;102609.22;;;5.61;100.00
19210;BME280;9738;51.654;14.238;2023-02-14T00:21:13;102612.81;;;5.58;100.00
19210;BME280;9738;51.654;14.238;2023-02-14T00:23:39;102614.88;;;5.52;100.00
19210;BME280;9738;51.654;14.238;2023-02-14T00:26:05;102615.81;;;5.51;100.00
19210;BME280;9738;51.654;14.238;2023-02-14T00:28:37;102611.53;;;5.48;100.00
19210;BME280;9738;51.654;14.238;2023-02-14T00:31:03;102613.41;;;5.45;100.00
19210;BME280;9738;51.654;14.238;2023-02-14T00:33:29;102606.47;;;5.42;100.00
19210;BME280;9738;51.654;14.238;2023-02-14T00:35:55;102611.97;;;5.37;100.00
19210;BME280;9738;51.654;14.238;2023-02-14T00:38:22;102606.84;;;5.33;100.00
19210;BME280;9738;51.654;14.238;2023-02-14T00:40:48;102607.66;;;5.35;100.00
19210;BME280;9738;51.654;14.238;2023-02-14T00:43:15;102619.78;;;5.40;100.00
19210;BME280;9738;51.654;14.238;2023-02-14T00:45:40;102619.66;;;5.43;100.00
19210;BME280;9738;51.654;14.238;2023-02-14T00:48:12;102619.66;;;5.43;100.00
19210;BME280;9738;51.654;14.238;2023-02-14T00:50:38;102612.72;;;5.41;100.00
19210;BME280;9738;51.654;14.238;2023-02-14T00:53:04;102615.34;;;5.41;100.00
19210;BME280;9738;51.654;14.238;2023-02-14T00:55:30;102616.16;;;5.43;100.00
19210;BME280;9738;51.654;14.238;2023-02-14T00:57:56;102612.56;;;5.44;100.00
19210;BME280;9738;51.654;14.238;2023-02-14T01:00:22;102604.53;;;5.46;100.00
19210;BME280;9738;51.654;14.238;2023-02-14T01:02:47;102602.75;;;5.46;100.00
19210;BME280;9738;51.654;14.238;2023-02-14T01:05:14;102608.91;;;5.47;100.00
19210;BME280;9738;51.654;14.238;2023-02-14T01:07:39;102601.03;;;5.45;100.00
19210;BME280;9738;51.654;14.238;2023-02-14T01:10:06;102606.25;;;5.47;100.00
19210;BME280;9738;51.654;14.238;2023-02-14T01:12:32;102606.25;;;5.47;100.00
19210;BME280;9738;51.654;14.238;2023-02-14T01:14:58;102604.53;;;5.46;100.00
19210;BME280;9738;51.654;14.238;2023-02-14T01:17:23;102600.16;;;5.45;100.00
19210;BME280;9738;51.654;14.238;2023-02-14T01:19:53;102604.63;;;5.44;100.00
19210;BME280;9738;51.654;14.238;2023-02-14T01:22:19;102599.38;;;5.42;100.00
19210;BME280;9738;51.654;14.238;2023-02-14T01:24:45;102589.84;;;5.38;100.00
19210;BME280;9738;51.654;14.238;2023-02-14T01:27:11;102589.97;;;5.35;100.00
19210;BME280;9738;51.654;14.238;2023-02-14T01:29:37;102585.66;;;5.33;100.00
19210;BME280;9738;51.654;14.238;2023-02-14T01:32:03;102588.38;;;5.31;100.00
19210;BME280;9738;51.654;14.238;2023-02-14T01:34:29;102586.66;;;5.30;100.00
19210;BME280;9738;51.654;14.238;2023-02-14T01:36:55;102584.06;;;5.29;100.00
19210;BME280;9738;51.654;14.238;2023-02-14T01:39:21;102581.47;;;5.27;100.00
19210;BME280;9738;51.654;14.238;2023-02-14T01:41:47;102584.19;;;5.26;100.00
19210;BME280;9738;51.654;14.238;2023-02-14T01:46:40;102570.94;;;5.26;100.00
19210;BME280;9738;51.654;14.238;2023-02-14T01:49:12;102573.59;;;5.26;100.00
19210;BME280;9738;51.654;14.238;2023-02-14T01:51:45;102569.22;;;5.25;100.00
19210;BME280;9738;51.654;14.238;2023-02-14T01:54:13;102568.44;;;5.23;100.00
19210;BME280;9738;51.654;14.238;2023-02-14T01:56:43;102570.16;;;5.24;100.00
19210;BME280;9738;51.654;14.238;2023-02-14T01:59:13;102569.22;;;5.25;100.00
19210;BME280;9738;51.654;14.238;2023-02-14T02:01:41;102567.69;;;5.19;100.00
19210;BME280;9738;51.654;14.238;2023-02-14T02:04:16;102569.47;;;5.19;100.00
19210;BME280;9738;51.654;14.238;2023-02-14T02:06:47;102573.84;;;5.20;100.00
19210;BME280;9738;51.654;14.238;2023-02-14T02:09:24;102578.19;;;5.22;100.00
19210;BME280;9738;51.654;14.238;2023-02-14T02:11:53;102578.22;;;5.21;100.00
19210;BME280;9738;51.654;14.238;2023-02-14T02:14:21;102572.72;;;5.25;100.00
19210;BME280;9738;51.654;14.238;2023-02-14T02:16:58;102579.75;;;5.26;100.00
19210;BME280;9738;51.654;14.238;2023-02-14T02:22:44;102570.16;;;5.24;100.00
19210;BME280;9738;51.654;14.238;2023-02-14T02:25:28;102568.44;;;5.23;100.00
19210;BME280;9738;51.654;14.238;2023-02-14T02:31:36;102561.53;;;5.19;100.00
19210;BME280;9738;51.654;14.238;2023-02-14T02:45:27;102564.25;;;5.17;100.00
19210;BME280;9738;51.654;14.238;2023-02-14T02:48:06;102570.34;;;5.19;100.00
19210;BME280;9738;51.654;14.238;2023-02-14T02:50:40;102566.84;;;5.19;100.00
19210;BME280;9738;51.654;14.238;2023-02-14T02:53:47;102572.13;;;5.19;100.00
19210;BME280;9738;51.654;14.238;2023-02-14T02:56:24;102573.91;;;5.18;100.00
19210;BME280;9738;51.654;14.238;2023-02-14T02:59:27;102567.00;;;5.14;100.00
19210;BME280;9738;51.654;14.238;2023-02-14T03:02:11;102565.38;;;5.11;100.00
19210;BME280;9738;51.654;14.238;2023-02-14T03:04:51;102567.16;;;5.11;100.00
19210;BME280;9738;51.654;14.238;2023-02-14T03:10:13;102569.31;;;5.01;100.00
19210;BME280;9738;51.654;14.238;2023-02-14T03:15:31;102572.78;;;5.03;100.00
19210;BME280;9738;51.654;14.238;2023-02-14T03:18:35;102574.69;;;5.00;100.00
19210;BME280;9738;51.654;14.238;2023-02-14T03:21:32;102579.97;;;5.00;100.00
19210;BME280;9738;51.654;14.238;2023-02-14T03:24:22;102572.09;;;4.98;100.00
19210;BME280;9738;51.654;14.238;2023-02-14T03:27:10;102580.91;;;4.99;100.00
19210;BME280;9738;51.654;14.238;2023-02-14T03:38:04;102572.66;;;4.84;100.00
19210;BME280;9738;51.654;14.238;2023-02-14T03:40:43;102577.81;;;4.87;100.00
19210;BME280;9738;51.654;14.238;2023-02-14T03:43:18;102575.06;;;4.91;100.00
19210;BME280;9738;51.654;14.238;2023-02-14T03:45:56;102574.25;;;4.88;100.00
19210;BME280;9738;51.654;14.238;2023-02-14T03:48:25;102583.88;;;4.91;100.00
19210;BME280;9738;51.654;14.238;2023-02-14T03:50:53;102577.66;;;4.92;100.00
19210;BME280;9738;51.654;14.238;2023-02-14T03:53:23;102569.69;;;4.92;100.00
19210;BME280;9738;51.654;14.238;2023-02-14T03:56:11;102568.84;;;4.92;100.00
19210;BME280;9738;51.654;14.238;2023-02-14T03:58:42;102567.84;;;4.94;100.00
19210;BME280;9738;51.654;14.238;2023-02-14T04:01:16;102577.47;;;4.97;100.00
19210;BME280;9738;51.654;14.238;2023-02-14T04:03:45;102572.03;;;5.00;100.00
19210;BME280;9738;51.654;14.238;2023-02-14T04:06:12;102578.13;;;5.02;100.00
19210;BME280;9738;51.654;14.238;2023-02-14T04:08:38;102573.75;;;5.01;100.00
19210;BME280;9738;51.654;14.238;2023-02-14T04:11:04;102573.88;;;4.98;100.00
19210;BME280;9738;51.654;14.238;2023-02-14T04:13:33;102578.44;;;4.94;100.00
19210;BME280;9738;51.654;14.238;2023-02-14T04:15:59;102580.22;;;4.94;100.00
19210;BME280;9738;51.654;14.238;2023-02-14T04:18:25;102574.13;;;4.92;100.00
19210;BME280;9738;51.654;14.238;2023-02-14T04:21:10;102575.97;;;4.89;100.00
19210;BME280;9738;51.654;14.238;2023-02-14T04:23:36;102579.53;;;4.88;100.00
19210;BME280;9738;51.654;14.238;2023-02-14T04:26:02;102564.75;;;4.83;100.00
19210;BME280;9738;51.654;14.238;2023-02-14T04:28:29;102564.84;;;4.81;100.00
19210;BME280;9738;51.654;14.238;2023-02-14T04:30:55;102567.47;;;4.81;100.00
19210;BME280;9738;51.654;14.238;2023-02-14T04:33:21;102558.59;;;4.82;100.00
19210;BME280;9738;51.654;14.238;2023-02-14T04:35:47;102553.38;;;4.81;100.00
19210;BME280;9738;51.654;14.238;2023-02-14T04:38:13;102556.03;;;4.81;100.00
19210;BME280;9738;51.654;14.238;2023-02-14T04:40:39;102556.91;;;4.81;100.00
19210;BME280;9738;51.654;14.238;2023-02-14T04:43:05;102549.88;;;4.80;100.00
19210;BME280;9738;51.654;14.238;2023-02-14T04:45:32;102550.03;;;4.77;100.00
19210;BME280;9738;51.654;14.238;2023-02-14T04:47:58;102545.59;;;4.78;100.00
19210;BME280;9738;51.654;14.238;2023-02-14T04:50:25;102543.66;;;4.81;100.00
19210;BME280;9738;51.654;14.238;2023-02-14T04:52:52;102536.56;;;4.82;100.00
19210;BME280;9738;51.654;14.238;2023-02-14T04:55:17;102542.72;;;4.82;100.00
19210;BME280;9738;51.654;14.238;2023-02-14T04:57:44;102541.00;;;4.81;100.00
19210;BME280;9738;51.654;14.238;2023-02-14T05:00:10;102535.84;;;4.78;100.00
19210;BME280;9738;51.654;14.238;2023-02-14T05:02:36;102528.84;;;4.77;100.00
19210;BME280;9738;51.654;14.238;2023-02-14T05:05:03;102535.03;;;4.76;100.00
19210;BME280;9738;51.654;14.238;2023-02-14T05:07:28;102534.25;;;4.74;100.00
19210;BME280;9738;51.654;14.238;2023-02-14T05:09:54;102528.19;;;4.71;100.00
19210;BME280;9738;51.654;14.238;2023-02-14T05:12:20;102523.72;;;4.73;100.00
19210;BME280;9738;51.654;14.238;2023-02-14T05:14:46;102520.16;;;4.74;100.00
19210;BME280;9738;51.654;14.238;2023-02-14T05:17:12;102529.09;;;4.71;100.00
19210;BME280;9738;51.654;14.238;2023-02-14T05:19:38;102521.25;;;4.68;100.00
19210;BME280;9738;51.654;14.238;2023-02-14T05:22:04;102513.47;;;4.65;100.00
19210;BME280;9738;51.654;14.238;2023-02-14T05:24:30;102525.88;;;4.63;100.00
19210;BME280;9738;51.654;14.238;2023-02-14T05:26:56;102525.00;;;4.63;100.00
19210;BME280;9738;51.654;14.238;2023-02-14T05:29:22;102524.03;;;4.65;100.00
19210;BME280;9738;51.654;14.238;2023-02-14T05:31:47;102512.53;;;4.66;100.00
19210;BME280;9738;51.654;14.238;2023-02-14T05:34:14;102522.25;;;4.66;100.00
19210;BME280;9738;51.654;14.238;2023-02-14T05:36:39;102518.84;;;4.62;100.00
19210;BME280;9738;51.654;14.238;2023-02-14T05:39:05;102517.22;;;4.59;100.00
19210;BME280;9738;51.654;14.238;2023-02-14T05:41:31;102524.28;;;4.59;100.00
19210;BME280;9738;51.654;14.238;2023-02-14T05:43:57;102520.78;;;4.58;100.00
19210;BME280;9738;51.654;14.238;2023-02-14T05:46:23;102527.84;;;4.58;100.00
19210;BME280;9738;51.654;14.238;2023-02-14T05:48:50;102525.19;;;4.58;100.00
19210;BME280;9738;51.654;14.238;2023-02-14T05:51:16;102528.84;;;4.55;100.00
19210;BME280;9738;51.654;14.238;2023-02-14T05:53:41;102525.50;;;4.50;100.00
19210;BME280;9738;51.654;14.238;2023-02-14T05:56:08;102530.75;;;4.52;100.00
19210;BME280;9738;51.654;14.238;2023-02-14T05:58:33;102537.63;;;4.56;100.00
19210;BME280;9738;51.654;14.238;2023-02-14T06:00:59;102538.41;;;4.58;100.00
19210;BME280;9738;51.654;14.238;2023-02-14T06:03:26;102536.69;;;4.57;100.00
19210;BME280;9738;51.654;14.238;2023-02-14T06:05:52;102531.53;;;4.54;100.00
19210;BME280;9738;51.654;14.238;2023-02-14T06:08:17;102538.72;;;4.50;100.00
19210;BME280;9738;51.654;14.238;2023-02-14T06:10:45;102538.31;;;4.39;100.00
19210;BME280;9738;51.654;14.238;2023-02-14T06:13:10;102543.34;;;4.45;100.00
19210;BME280;9738;51.654;14.238;2023-02-14T06:15:37;102538.78;;;4.49;100.00
19210;BME280;9738;51.654;14.238;2023-02-14T06:18:04;102545.13;;;4.45;100.00
19210;BME280;9738;51.654;14.238;2023-02-14T06:20:30;102544.34;;;4.43;100.00
19210;BME280;9738;51.654;14.238;2023-02-14T06:22:56;102551.28;;;4.45;100.00
19210;BME280;9738;51.654;14.238;2023-02-14T06:25:23;102547.66;;;4.48;100.00
19210;BME280;9738;51.654;14.238;2023-02-14T06:27:49;102543.97;;;4.52;100.00
19210;BME280;9738;51.654;14.238;2023-02-14T06:30:16;102561.44;;;4.56;100.00
19210;BME280;9738;51.654;14.238;2023-02-14T06:32:43;102547.41;;;4.54;100.00
19210;BME280;9738;51.654;14.238;2023-02-14T06:35:09;102561.59;;;4.53;100.00
19210;BME280;9738;51.654;14.238;2023-02-14T06:37:35;102559.09;;;4.48;100.00
19210;BME280;9738;51.654;14.238;2023-02-14T06:40:01;102557.38;;;4.47;100.00
19210;BME280;9738;51.654;14.238;2023-02-14T06:42:27;102555.53;;;4.49;100.00
19210;BME280;9738;51.654;14.238;2023-02-14T06:44:53;102559.88;;;4.52;100.00
19210;BME280;9738;51.654;14.238;2023-02-14T06:47:20;102558.00;;;4.54;100.00
19210;BME280;9738;51.654;14.238;2023-02-14T06:49:45;102558.00;;;4.54;100.00
19210;BME280;9738;51.654;14.238;2023-02-14T06:52:11;102538.69;;;4.52;100.00
19210;BME280;9738;51.654;14.238;2023-02-14T06:54:37;102556.31;;;4.51;100.00
19210;BME280;9738;51.654;14.238;2023-02-14T06:57:03;102548.28;;;4.54;100.00
19210;BME280;9738;51.654;14.238;2023-02-14T06:59:29;102552.66;;;4.55;100.00
19210;BME280;9738;51.654;14.238;2023-02-14T07:01:55;102560.91;;;4.48;100.00
19210;BME280;9738;51.654;14.238;2023-02-14T07:04:21;102563.09;;;4.37;100.00
19210;BME280;9738;51.654;14.238;2023-02-14T07:06:47;102565.00;;;4.33;100.00
19210;BME280;9738;51.654;14.238;2023-02-14T07:09:13;102561.31;;;4.37;100.00
19210;BME280;9738;51.654;14.238;2023-02-14T07:11:45;102560.19;;;4.43;100.00
19210;BME280;9738;51.654;14.238;2023-02-14T07:14:11;102559.19;;;4.47;100.00
19210;BME280;9738;51.654;14.238;2023-02-14T07:16:38;102559.97;;;4.49;100.00
19210;BME280;9738;51.654;14.238;2023-02-14T07:19:04;102556.41;;;4.50;100.00
19210;BME280;9738;51.654;14.238;2023-02-14T07:21:29;102564.22;;;4.53;100.00
19210;BME280;9738;51.654;14.238;2023-02-14T07:23:56;102570.16;;;4.58;100.00
19210;BME280;9738;51.654;14.238;2023-02-14T07:26:21;102557.63;;;4.63;100.00
19210;BME280;9738;51.654;14.238;2023-02-14T07:28:47;102554.06;;;4.64;100.00
19210;BME280;9738;51.654;14.238;2023-02-14T07:31:17;102561.34;;;4.59;100.00
19210;BME280;9738;51.654;14.238;2023-02-14T07:33:44;102557.63;;;4.63;100.00
19210;BME280;9738;51.654;14.238;2023-02-14T07:36:10;102560.88;;;4.70;100.00
19210;BME280;9738;51.654;14.238;2023-02-14T07:38:36;102553.81;;;4.70;100.00
19210;BME280;9738;51.654;14.238;2023-02-14T07:41:02;102546.88;;;4.68;100.00
19210;BME280;9738;51.654;14.238;2023-02-14T07:43:28;102560.66;;;4.76;100.00
19210;BME280;9738;51.654;14.238;2023-02-14T07:45:55;102550.75;;;4.81;100.00
19210;BME280;9738;51.654;14.238;2023-02-14T07:48:20;102547.09;;;4.83;100.00
19210;BME280;9738;51.654;14.238;2023-02-14T07:50:47;102550.63;;;4.84;100.00
19210;BME280;9738;51.654;14.238;2023-02-14T07:53:13;102548.78;;;4.86;100.00
19210;BME280;9738;51.654;14.238;2023-02-14T07:55:39;102554.69;;;4.93;100.00
19210;BME280;9738;51.654;14.238;2023-02-14T07:58:05;102555.53;;;4.93;100.00
19210;BME280;9738;51.654;14.238;2023-02-14T08:00:31;102557.19;;;4.96;100.00
19210;BME280;9738;51.654;14.238;2023-02-14T08:02:57;102563.31;;;4.98;100.00
19210;BME280;9738;51.654;14.238;2023-02-14T08:05:23;102566.72;;;5.00;100.00
19210;BME280;9738;51.654;14.238;2023-02-14T08:07:49;102562.44;;;4.97;100.00
19210;BME280;9738;51.654;14.238;2023-02-14T08:10:15;102562.38;;;4.99;100.00
19210;BME280;9738;51.654;14.238;2023-02-14T08:12:41;102561.38;;;5.01;100.00
19210;BME280;9738;51.654;14.238;2023-02-14T08:15:33;102561.50;;;4.98;100.00
19210;BME280;9738;51.654;14.238;2023-02-14T08:18:19;102562.38;;;4.99;100.00
19210;BME280;9738;51.654;14.238;2023-02-14T08:20:46;102569.28;;;5.03;100.00
19210;BME280;9738;51.654;14.238;2023-02-14T08:23:15;102564.50;;;5.11;100.00
19210;BME280;9738;51.654;14.238;2023-02-14T08:25:41;102567.84;;;5.16;100.00
19210;BME280;9738;51.654;14.238;2023-02-14T08:28:07;102567.50;;;5.24;100.00
19210;BME280;9738;51.654;14.238;2023-02-14T08:30:35;102567.44;;;5.25;100.00
19210;BME280;9738;51.654;14.238;2023-02-14T08:33:02;102567.44;;;5.25;100.00
19210;BME280;9738;51.654;14.238;2023-02-14T08:35:29;102568.19;;;5.29;100.00
19210;BME280;9738;51.654;14.238;2023-02-14T08:37:55;102563.59;;;5.32;100.00
19210;BME280;9738;51.654;14.238;2023-02-14T08:40:20;102560.94;;;5.32;100.00
19210;BME280;9738;51.654;14.238;2023-02-14T08:42:48;102569.91;;;5.30;100.00
19210;BME280;9738;51.654;14.238;2023-02-14T08:45:13;102568.63;;;5.38;100.00
19210;BME280;9738;51.654;14.238;2023-02-14T08:47:39;102576.31;;;5.45;100.00
19210;BME280;9738;51.654;14.238;2023-02-14T08:50:09;102579.16;;;5.40;100.00
19210;BME280;9738;51.654;14.238;2023-02-14T08:52:35;102580.41;;;5.31;100.00
19210;BME280;9738;51.654;14.238;2023-02-14T08:55:01;102584.78;;;5.32;100.00
19210;BME280;9738;51.654;14.238;2023-02-14T08:57:28;102590.09;;;5.32;100.00
19210;BME280;9738;51.654;14.238;2023-02-14T08:59:54;102589.63;;;5.23;100.00
19210;BME280;9738;51.654;14.238;2023-02-14T09:02:19;102587.41;;;5.12;100.00
19210;BME280;9738;51.654;14.238;2023-02-14T09:04:46;102590.47;;;5.03;100.00
19210;BME280;9738;51.654;14.238;2023-02-14T09:07:12;102591.34;;;5.02;100.00
19210;BME280;9738;51.654;14.238;2023-02-14T09:09:38;102591.00;;;5.11;100.00
19210;BME280;9738;51.654;14.238;2023-02-14T09:12:05;102576.66;;;4.95;100.00
19210;BME280;9738;51.654;14.238;2023-02-14T09:14:36;102585.75;;;4.87;100.00
19210;BME280;9738;51.654;14.238;2023-02-14T09:17:02;102577.56;;;4.94;100.00
19210;BME280;9738;51.654;14.238;2023-02-14T09:19:35;102579.66;;;5.07;100.00
19210;BME280;9738;51.654;14.238;2023-02-14T09:22:02;102590.66;;;5.19;100.00
19210;BME280;9738;51.654;14.238;2023-02-14T09:24:33;102585.25;;;5.22;100.00
19210;BME280;9738;51.654;14.238;2023-02-14T09:26:59;102591.25;;;5.05;100.00
19210;BME280;9738;51.654;14.238;2023-02-14T09:29:26;102595.38;;;5.12;100.00
19210;BME280;9738;51.654;14.238;2023-02-14T09:31:54;102595.66;;;5.26;100.00
19210;BME280;9738;51.654;14.238;2023-02-14T09:34:21;102594.53;;;5.32;100.00
19210;BME280;9738;51.654;14.238;2023-02-14T09:36:47;102590.75;;;5.37;100.00
19210;BME280;9738;51.654;14.238;2023-02-14T09:39:31;102595.34;;;5.54;100.00
19210;BME280;9738;51.654;14.238;2023-02-14T09:44:37;102587.31;;;5.76;100.00
19210;BME280;9738;51.654;14.238;2023-02-14T09:50:00;102600.03;;;5.88;100.00
19210;BME280;9738;51.654;14.238;2023-02-14T09:52:29;102596.59;;;5.86;100.00
19210;BME280;9738;51.654;14.238;2023-02-14T09:55:00;102600.09;;;5.87;100.00
19210;BME280;9738;51.654;14.238;2023-02-14T09:57:35;102601.66;;;5.92;100.00
19210;BME280;9738;51.654;14.238;2023-02-14T10:00:20;102596.63;;;5.85;100.00
19210;BME280;9738;51.654;14.238;2023-02-14T10:03:18;102594.69;;;5.69;100.00
19210;BME280;9738;51.654;14.238;2023-02-14T10:06:11;102599.72;;;5.76;100.00
19210;BME280;9738;51.654;14.238;2023-02-14T10:09:05;102602.03;;;5.83;100.00
19210;BME280;9738;51.654;14.238;2023-02-14T10:11:34;102596.72;;;5.83;100.00
19210;BME280;9738;51.654;14.238;2023-02-14T10:14:05;102600.03;;;5.88;100.00
19210;BME280;9738;51.654;14.238;2023-02-14T10:19:27;102598.44;;;5.84;100.00
19210;BME280;9738;51.654;14.238;2023-02-14T10:22:00;102601.66;;;5.92;100.00
19210;BME280;9738;51.654;14.238;2023-02-14T10:24:43;102592.28;;;5.84;100.00
19210;BME280;9738;51.654;14.238;2023-02-14T10:27:24;102590.19;;;5.92;100.00
19210;BME280;9738;51.654;14.238;2023-02-14T10:29:53;102592.50;;;6.00;100.00
19210;BME280;9738;51.654;14.238;2023-02-14T10:32:26;102584.19;;;6.07;100.00
19210;BME280;9738;51.654;14.238;2023-02-14T10:34:55;102585.53;;;6.16;100.00
19210;BME280;9738;51.654;14.238;2023-02-14T10:43:27;102577.03;;;6.28;100.00
19210;BME280;9738;51.654;14.238;2023-02-14T10:46:14;102581.34;;;6.31;100.00
19210;BME280;9738;51.654;14.238;2023-02-14T10:48:57;102584.19;;;6.26;100.00
19210;BME280;9738;51.654;14.238;2023-02-14T10:51:45;102582.50;;;6.25;100.00
19210;BME280;9738;51.654;14.238;2023-02-14T10:54:20;102576.88;;;6.12;100.00
19210;BME280;9738;51.654;14.238;2023-02-14T10:57:41;102580.69;;;6.07;100.00
19210;BME280;9738;51.654;14.238;2023-02-14T11:00:02;102575.22;;;6.10;100.00
19210;BME280;9738;51.654;14.238;2023-02-14T11:02:41;102580.78;;;6.04;100.00
19210;BME280;9738;51.654;14.238;2023-02-14T11:05:30;102578.03;;;6.07;100.00
19210;BME280;9738;51.654;14.238;2023-02-14T11:07:57;102571.50;;;6.14;100.00
19210;BME280;9738;51.654;14.238;2023-02-14T11:10:28;102573.22;;;6.15;100.00
19210;BME280;9738;51.654;14.238;2023-02-14T11:12:55;102574.66;;;6.22;100.00
19210;BME280;9738;51.654;14.238;2023-02-14T11:15:31;102569.88;;;6.30;100.00
19210;BME280;9738;51.654;14.238;2023-02-14T11:18:16;102573.97;;;6.37;100.00
19210;BME280;9738;51.654;14.238;2023-02-14T11:21:07;102576.16;;;6.46;100.00
19210;BME280;9738;51.654;14.238;2023-02-14T11:23:46;102569.88;;;6.49;100.00
19210;BME280;9738;51.654;14.238;2023-02-14T11:28:58;102567.63;;;6.59;100.00
19210;BME280;9738;51.654;14.238;2023-02-14T11:31:31;102564.66;;;6.65;100.00
19210;BME280;9738;51.654;14.238;2023-02-14T11:33:58;102559.94;;;6.71;100.00
19210;BME280;9738;51.654;14.238;2023-02-14T11:36:25;102551.75;;;6.76;100.00
19210;BME280;9738;51.654;14.238;2023-02-14T11:39:01;102554.31;;;6.77;100.00
19210;BME280;9738;51.654;14.238;2023-02-14T11:41:44;102557.81;;;6.78;100.00
19210;BME280;9738;51.654;14.238;2023-02-14T11:44:15;102549.78;;;6.80;100.00
19210;BME280;9738;51.654;14.238;2023-02-14T11:46:49;102545.19;;;6.83;100.00
19210;BME280;9738;51.654;14.238;2023-02-14T11:51:54;102541.47;;;6.87;100.00
19210;BME280;9738;51.654;14.238;2023-02-14T11:54:35;102543.19;;;6.88;100.00
19210;BME280;9738;51.654;14.238;2023-02-14T11:57:13;102544.13;;;6.87;100.00
19210;BME280;9738;51.654;14.238;2023-02-14T11:59:45;102538.16;;;6.82;100.00
19210;BME280;9738;51.654;14.238;2023-02-14T12:02:23;102537.22;;;6.83;100.00
19210;BME280;9738;51.654;14.238;2023-02-14T12:05:20;102538.84;;;6.86;100.00
19210;BME280;9738;51.654;14.238;2023-02-14T12:07:51;102531.59;;;6.89;100.00
19210;BME280;9738;51.654;14.238;2023-02-14T12:10:25;102534.09;;;6.92;100.00
19210;BME280;9738;51.654;14.238;2023-02-14T12:12:58;102531.31;;;6.95;100.00
19210;BME280;9738;51.654;14.238;2023-02-14T12:15:34;102530.63;;;6.73;100.00
19210;BME280;9738;51.654;14.238;2023-02-14T12:21:07;102530.19;;;6.27;100.00
19210;BME280;9738;51.654;14.238;2023-02-14T12:23:44;102526.75;;;6.44;100.00
19210;BME280;9738;51.654;14.238;2023-02-14T12:26:34;102510.44;;;6.52;100.00
19210;BME280;9738;51.654;14.238;2023-02-14T12:31:30;102513.97;;;6.52;100.00
19210;BME280;9738;51.654;14.238;2023-02-14T12:33:57;102503.13;;;6.57;100.00
19210;BME280;9738;51.654;14.238;2023-02-14T12:36:41;102510.53;;;6.67;100.00
19210;BME280;9738;51.654;14.238;2023-02-14T12:39:41;102497.03;;;6.72;100.00
19210;BME280;9738;51.654;14.238;2023-02-14T12:45:03;102493.16;;;6.79;100.00
19210;BME280;9738;51.654;14.238;2023-02-14T12:56:05;102479.66;;;6.11;100.00
19210;BME280;9738;51.654;14.238;2023-02-14T13:04:17;102473.44;;;6.30;100.00
19210;BME280;9738;51.654;14.238;2023-02-14T13:06:51;102468.31;;;6.08;100.00
19210;BME280;9738;51.654;14.238;2023-02-14T13:09:35;102467.50;;;5.87;100.00
19210;BME280;9738;51.654;14.238;2023-02-14T13:12:14;102458.53;;;5.89;100.00
19210;BME280;9738;51.654;14.238;2023-02-14T13:17:48;102460.06;;;5.95;100.00
19210;BME280;9738;51.654;14.238;2023-02-14T13:20:43;102453.81;;;5.77;100.00
19210;BME280;9738;51.654;14.238;2023-02-14T13:23:19;102459.84;;;5.81;100.00
19210;BME280;9738;51.654;14.238;2023-02-14T13:25:52;102459.25;;;5.74;100.00
19210;BME280;9738;51.654;14.238;2023-02-14T13:28:20;102448.19;;;5.64;100.00
19210;BME280;9738;51.654;14.238;2023-02-14T13:30:46;102449.88;;;5.67;100.00
19210;BME280;9738;51.654;14.238;2023-02-14T13:33:25;102450.56;;;5.70;100.00
19210;BME280;9738;51.654;14.238;2023-02-14T13:35:55;102450.22;;;5.78;100.00
19210;BME280;9738;51.654;14.238;2023-02-14T13:38:23;102446.09;;;5.73;100.00
19210;BME280;9738;51.654;14.238;2023-02-14T13:40:51;102444.22;;;5.75;100.00
19210;BME280;9738;51.654;14.238;2023-02-14T13:43:52;102452.63;;;5.45;100.00
19210;BME280;9738;51.654;14.238;2023-02-14T13:46:44;102441.72;;;5.32;100.00
19210;BME280;9738;51.654;14.238;2023-02-14T13:49:24;102429.91;;;5.39;100.00
19210;BME280;9738;51.654;14.238;2023-02-14T13:51:53;102432.97;;;5.30;100.00
19210;BME280;9738;51.654;14.238;2023-02-14T13:54:42;102440.00;;;5.31;100.00
19210;BME280;9738;51.654;14.238;2023-02-14T13:57:35;102429.84;;;5.41;100.00
19210;BME280;9738;51.654;14.238;2023-02-14T14:02:54;102421.56;;;5.49;100.00
19210;BME280;9738;51.654;14.238;2023-02-14T14:14:00;102432.72;;;5.36;100.00
19210;BME280;9738;51.654;14.238;2023-02-14T14:16:31;102432.34;;;5.44;100.00
19210;BME280;9738;51.654;14.238;2023-02-14T14:21:38;102432.72;;;5.36;100.00
19210;BME280;9738;51.654;14.238;2023-02-14T14:24:22;102434.56;;;5.34;100.00
19210;BME280;9738;51.654;14.238;2023-02-14T14:27:15;102434.00;;;5.47;100.00
19210;BME280;9738;51.654;14.238;2023-02-14T14:29:52;102435.78;;;5.46;100.00
19210;BME280;9738;51.654;14.238;2023-02-14T14:32:34;102431.63;;;5.40;100.00
19210;BME280;9738;51.654;14.238;2023-02-14T14:35:18;102426.03;;;5.47;100.00
19210;BME280;9738;51.654;14.238;2023-02-14T14:37:55;102424.72;;;5.57;100.00
19210;BME280;9738;51.654;14.238;2023-02-14T14:40:23;102422.84;;;5.59;100.00
19210;BME280;9738;51.654;14.238;2023-02-14T14:42:50;102419.97;;;5.63;100.00
19210;BME280;9738;51.654;14.238;2023-02-14T14:45:37;102427.06;;;5.63;100.00